createdAt,value
2023-04-04T00:00:33.188Z,100162.91
2023-04-04T00:05:37.449Z,100165.66
2023-04-04T00:10:40.744Z,100162.50
2023-04-04T00:15:43.893Z,100155.63
2023-04-04T00:20:48.128Z,100154.28
2023-04-04T00:25:52.144Z,100143.72
2023-04-04T00:30:56.212Z,100141.38
2023-04-04T00:36:00.760Z,100144.22
2023-04-04T00:41:03.868Z,100139.19
2023-04-04T00:46:09.510Z,100138.09
2023-04-04T00:51:14.002Z,100141.56
2023-04-04T00:56:17.098Z,100129.19
2023-04-04T01:01:20.081Z,100129.53
2023-04-04T01:06:24.622Z,100126.75
2023-04-04T01:11:28.303Z,100124.03
2023-04-04T01:16:31.655Z,100124.38
2023-04-04T01:21:37.010Z,100121.19
2023-04-04T01:26:41.995Z,100121.97
2023-04-04T01:31:51.147Z,100121.38
2023-04-04T01:37:02.401Z,100112.38
2023-04-04T01:42:10.555Z,100107.53
2023-04-04T01:47:14.271Z,100104.31
2023-04-04T01:52:17.483Z,100105.44
2023-04-04T01:57:21.839Z,100102.59
2023-04-04T02:02:24.861Z,100085.28
2023-04-04T02:07:28.447Z,100090.94
2023-04-04T02:12:33.324Z,100086.41
2023-04-04T02:17:36.371Z,100085.91
2023-04-04T02:22:39.359Z,100081.25
2023-04-04T02:27:43.569Z,100086.78
2023-04-04T02:32:47.285Z,100076.56
2023-04-04T02:37:53.529Z,100084.53
2023-04-04T02:43:04.837Z,100074.16
2023-04-04T02:48:08.725Z,100075.81
2023-04-04T02:53:17.974Z,100069.31
2023-04-04T02:58:24.933Z,100068.75
2023-04-04T03:03:28.402Z,100075.34
2023-04-04T03:08:31.996Z,100081.47
2023-04-04T03:13:37.457Z,100077.16
2023-04-04T03:18:40.445Z,100075.81
2023-04-04T03:23:43.685Z,100066.44
2023-04-04T03:28:48.113Z,100068.75
2023-04-04T03:33:51.450Z,100065.28
2023-04-04T03:38:54.598Z,100069.19
2023-04-04T03:43:58.879Z,100060.09
2023-04-04T03:49:01.801Z,100058.41
2023-04-04T03:54:04.702Z,100055.72
2023-04-04T03:59:09.566Z,100055.44
2023-04-04T04:04:12.750Z,100051.63
2023-04-04T04:09:16.426Z,100065.03
2023-04-04T04:14:20.790Z,100056.94
2023-04-04T04:19:23.803Z,100065.88
2023-04-04T04:24:26.813Z,100063.00
2023-04-04T04:29:31.419Z,100068.91
2023-04-04T04:34:34.696Z,100063.91
2023-04-04T04:39:38.775Z,100065.59
2023-04-04T04:45:01.627Z,100070.03
2023-04-04T04:50:09.084Z,100066.69
2023-04-04T04:55:17.854Z,100064.59
2023-04-04T05:00:28.955Z,100064.41
2023-04-04T05:05:32.043Z,100073.41
2023-04-04T05:10:40.539Z,100074.81
2023-04-04T05:15:47.586Z,100073.47
2023-04-04T05:20:53.137Z,100083.09
2023-04-04T05:25:56.601Z,100090.69
2023-04-04T05:31:04.367Z,100094.00
2023-04-04T05:36:11.502Z,100091.13
2023-04-04T05:41:18.921Z,100098.53
2023-04-04T05:46:24.817Z,100108.97
2023-04-04T05:51:29.567Z,100096.03
2023-04-04T05:56:43.615Z,100104.25
2023-04-04T06:02:08.794Z,100105.06
2023-04-04T06:07:16.177Z,100112.66
2023-04-04T06:12:19.181Z,100102.53
2023-04-04T06:17:24.783Z,100110.28
2023-04-04T06:22:27.814Z,100106.63
2023-04-04T06:27:32.169Z,100105.59
2023-04-04T06:32:40.006Z,100099.84
2023-04-04T06:37:45.062Z,100090.84
2023-04-04T06:42:55.135Z,100096.19
2023-04-04T06:48:02.425Z,100099.88
2023-04-04T06:53:06.815Z,100100.69
2023-04-04T06:58:09.749Z,100093.28
2023-04-04T07:03:14.139Z,100091.19
2023-04-04T07:08:17.059Z,100084.50
2023-04-04T07:13:20.430Z,100086.69
2023-04-04T07:18:24.650Z,100085.50
2023-04-04T07:23:27.553Z,100083.97
2023-04-04T07:28:30.437Z,100086.25
2023-04-04T07:33:34.752Z,100090.78
2023-04-04T07:38:37.680Z,100098.50
2023-04-04T07:43:40.645Z,100099.38
2023-04-04T07:48:44.908Z,100093.25
2023-04-04T07:53:47.823Z,100089.50
2023-04-04T07:58:50.890Z,100093.72
2023-04-04T08:03:55.296Z,100092.91
2023-04-04T08:08:58.541Z,100088.78
2023-04-04T08:14:01.412Z,100086.78
2023-04-04T08:19:06.986Z,100085.00
2023-04-04T08:24:10.057Z,100086.91
2023-04-04T08:29:12.923Z,100077.50
2023-04-04T08:34:17.231Z,100068.84
2023-04-04T08:39:20.113Z,100078.66
2023-04-04T08:44:26.219Z,100066.34
2023-04-04T08:49:33.113Z,100073.00
2023-04-04T08:54:36.495Z,100065.13
2023-04-04T08:59:40.291Z,100065.47
2023-04-04T09:04:54.610Z,100058.00
2023-04-04T09:10:08.992Z,100058.06
2023-04-04T09:15:12.793Z,100056.19
2023-04-04T09:20:37.140Z,100064.91
2023-04-04T09:26:02.570Z,100049.38
2023-04-04T09:31:10.018Z,100064.22
2023-04-04T09:36:15.574Z,100055.09
2023-04-04T09:41:21.567Z,100051.69
2023-04-04T09:46:27.977Z,100055.59
2023-04-04T09:51:37.152Z,100062.91
2023-04-04T09:56:40.361Z,100066.75
2023-04-04T10:01:45.672Z,100063.22
2023-04-04T10:06:50.280Z,100044.41
2023-04-04T10:12:09.794Z,100053.06
2023-04-04T10:17:13.479Z,100044.22
2023-04-04T10:22:19.893Z,100041.19
2023-04-04T10:27:23.027Z,100052.16
2023-04-04T10:32:34.795Z,100048.94
2023-04-04T10:37:45.894Z,100065.06
2023-04-04T10:42:51.012Z,100036.59
2023-04-04T10:47:55.828Z,100028.09
2023-04-04T10:53:02.212Z,100019.47
2023-04-04T10:58:05.537Z,100010.03
2023-04-04T11:03:09.288Z,100037.44
2023-04-04T11:08:17.546Z,100028.31
2023-04-04T11:13:23.095Z,100015.59
2023-04-04T11:18:47.512Z,100019.78
2023-04-04T11:24:16.984Z,100027.00
2023-04-04T11:29:43.586Z,100007.50
2023-04-04T11:34:46.470Z,99988.25
2023-04-04T11:39:57.316Z,99973.88
2023-04-04T11:45:05.025Z,99978.84
2023-04-04T11:50:09.877Z,99982.63
2023-04-04T11:55:19.036Z,99986.97
2023-04-04T12:00:32.217Z,99970.25
2023-04-04T12:05:36.082Z,99992.53
2023-04-04T12:10:41.470Z,99974.44
2023-04-04T12:15:45.045Z,99979.03
2023-04-04T12:20:49.147Z,99966.31
2023-04-04T12:25:55.780Z,99964.72
2023-04-04T12:31:04.888Z,99953.75
2023-04-04T12:36:08.445Z,99954.66
2023-04-04T12:41:19.473Z,99939.59
2023-04-04T12:46:27.420Z,99934.88
2023-04-04T12:51:33.825Z,99943.78
2023-04-04T12:56:38.264Z,99951.84
2023-04-04T13:01:42.133Z,99943.84
2023-04-04T13:06:47.744Z,99925.75
2023-04-04T13:12:02.891Z,99930.00
2023-04-04T13:17:08.299Z,99927.97
2023-04-04T13:22:11.398Z,99907.47
2023-04-04T13:27:15.704Z,99916.31
2023-04-04T13:32:18.594Z,99911.16
2023-04-04T13:37:21.516Z,99907.47
2023-04-04T13:42:30.327Z,99892.53
2023-04-04T13:47:33.367Z,99898.31
2023-04-04T13:52:36.294Z,99897.31
2023-04-04T13:57:40.529Z,99886.75
2023-04-04T14:02:43.487Z,99879.81
2023-04-04T14:07:46.551Z,99874.97
2023-04-04T14:12:50.804Z,99874.03
2023-04-04T14:17:53.858Z,99868.94
2023-04-04T14:22:56.811Z,99868.97
2023-04-04T14:28:01.116Z,99867.00
2023-04-04T14:33:04.155Z,99863.91
2023-04-04T14:38:07.101Z,99863.28
2023-04-04T14:43:11.343Z,99863.91
2023-04-04T14:48:14.271Z,99874.53
2023-04-04T14:53:17.254Z,99852.66
2023-04-04T14:58:21.537Z,99853.00
2023-04-04T15:03:24.507Z,99854.81
2023-04-04T15:08:27.551Z,99848.78
2023-04-04T15:13:32.710Z,99859.31
2023-04-04T15:18:37.578Z,99856.75
2023-04-04T15:23:40.560Z,99846.91
2023-04-04T15:28:44.956Z,99842.34
2023-04-04T15:33:48.437Z,99845.34
2023-04-04T15:38:52.084Z,99838.84
2023-04-04T15:43:56.316Z,99840.69
2023-04-04T15:48:59.322Z,99846.53
2023-04-04T15:54:02.229Z,99838.41
2023-04-04T15:59:06.577Z,99837.63
2023-04-04T16:04:10.371Z,99823.22
2023-04-04T16:09:13.294Z,99828.59
2023-04-04T16:14:17.712Z,99836.22
2023-04-04T16:19:20.622Z,99835.94
2023-04-04T16:24:32.720Z,99839.47
2023-04-04T16:29:35.629Z,99832.47
2023-04-04T16:34:38.988Z,99828.88
2023-04-04T16:39:43.281Z,99842.16
2023-04-04T16:44:46.973Z,99837.81
2023-04-04T16:49:50.020Z,99842.22
2023-04-04T16:54:55.401Z,99834.13
2023-04-04T16:59:58.328Z,99829.00
2023-04-04T17:05:01.240Z,99827.06
2023-04-04T17:10:06.656Z,99816.25
2023-04-04T17:15:10.962Z,99818.28
2023-04-04T17:20:18.190Z,99816.06
2023-04-04T17:25:26.758Z,99819.66
2023-04-04T17:30:30.080Z,99819.00
2023-04-04T17:35:33.005Z,99826.59
2023-04-04T17:40:37.368Z,99828.75
2023-04-04T17:45:40.474Z,99827.00
2023-04-04T17:51:01.032Z,99821.84
2023-04-04T17:56:06.306Z,99826.88
2023-04-04T18:01:09.177Z,99818.25
2023-04-04T18:06:12.220Z,99823.69
2023-04-04T18:11:16.477Z,99822.13
2023-04-04T18:16:19.490Z,99829.69
2023-04-04T18:21:22.452Z,99823.81
2023-04-04T18:26:26.826Z,99828.88
2023-04-04T18:31:29.808Z,99825.63
2023-04-04T18:36:32.864Z,99839.38
2023-04-04T18:41:37.137Z,99834.31
2023-04-04T18:46:40.538Z,99843.63
2023-04-04T18:51:43.612Z,99838.34
2023-04-04T18:56:48.940Z,99843.41
2023-04-04T19:01:52.618Z,99841.47
2023-04-04T19:06:55.685Z,99847.03
2023-04-04T19:12:01.478Z,99842.69
2023-04-04T19:17:05.142Z,99840.75
2023-04-04T19:22:08.091Z,99843.41
2023-04-04T19:27:12.567Z,99836.81
2023-04-04T19:32:19.608Z,99834.44
2023-04-04T19:37:22.886Z,99839.53
2023-04-04T19:42:30.333Z,99839.19
2023-04-04T19:47:33.338Z,99838.16
2023-04-04T19:52:37.870Z,99840.22
2023-04-04T19:57:42.095Z,99838.22
2023-04-04T20:02:53.537Z,99836.66
2023-04-04T20:07:56.511Z,99838.88
2023-04-04T20:13:00.784Z,99833.53
2023-04-04T20:18:03.754Z,99836.44
2023-04-04T20:23:07.380Z,99837.75
2023-04-04T20:28:21.422Z,99837.03
2023-04-04T20:33:32.509Z,99828.63
2023-04-04T20:38:36.487Z,99830.56
2023-04-04T20:43:41.779Z,99832.56
2023-04-04T20:48:47.276Z,99827.50
2023-04-04T20:53:50.522Z,99833.13
2023-04-04T20:58:54.788Z,99838.06
2023-04-04T21:03:58.770Z,99837.94
2023-04-04T21:09:02.042Z,99839.88
2023-04-04T21:14:07.086Z,99845.00
2023-04-04T21:19:12.912Z,99831.44
2023-04-04T21:24:15.874Z,99831.19
2023-04-04T21:29:23.103Z,99825.88
2023-04-04T21:34:27.712Z,99821.63
2023-04-04T21:39:31.621Z,99813.16
2023-04-04T21:44:35.926Z,99816.72
2023-04-04T21:49:38.865Z,99815.25
2023-04-04T21:54:41.719Z,99809.06
2023-04-04T21:59:45.952Z,99803.31
2023-04-04T22:04:48.826Z,99803.25
2023-04-04T22:09:52.853Z,99807.22
2023-04-04T22:14:58.686Z,99805.72
2023-04-04T22:20:08.425Z,99801.72
2023-04-04T22:25:11.423Z,99795.03
2023-04-04T22:30:16.100Z,99789.84
2023-04-04T22:35:18.968Z,99793.44
2023-04-04T22:40:22.157Z,99792.56
2023-04-04T22:45:29.478Z,99787.63
2023-04-04T22:50:35.405Z,99787.28
2023-04-04T22:55:38.269Z,99793.69
2023-04-04T23:00:43.882Z,99797.47
2023-04-04T23:05:46.835Z,99788.50
2023-04-04T23:10:49.752Z,99786.94
2023-04-04T23:15:54.240Z,99782.69
2023-04-04T23:20:57.133Z,99783.97
2023-04-04T23:26:00.030Z,99774.44
2023-04-04T23:31:04.371Z,99773.03
2023-04-04T23:36:08.053Z,99771.41
2023-04-04T23:41:11.168Z,99772.63
2023-04-04T23:46:15.650Z,99779.00
2023-04-04T23:51:18.776Z,99772.97
2023-04-04T23:56:22.575Z,99761.09
